sensor_id;sensor_type;location;lat;lon;timestamp;P1;durP1;ratioP1;P2;durP2;ratioP2
20884;SDS011;10602;48.000;9.654;2022-07-29T00:01:21;10.00;;;8.33;;
20884;SDS011;10602;48.000;9.654;2022-07-29T00:03:49;7.20;;;5.63;;
20884;SDS011;10602;48.000;9.654;2022-07-29T00:06:16;8.33;;;7.47;;
20884;SDS011;10602;48.000;9.654;2022-07-29T00:08:44;5.87;;;5.20;;
20884;SDS011;10602;48.000;9.654;2022-07-29T00:11:11;7.33;;;6.47;;
20884;SDS011;10602;48.000;9.654;2022-07-29T00:13:39;5.47;;;4.93;;
20884;SDS011;10602;48.000;9.654;2022-07-29T00:16:06;4.53;;;3.97;;
20884;SDS011;10602;48.000;9.654;2022-07-29T00:18:34;4.70;;;4.27;;
20884;SDS011;10602;48.000;9.654;2022-07-29T00:21:01;4.97;;;3.80;;
20884;SDS011;10602;48.000;9.654;2022-07-29T00:23:29;4.50;;;4.10;;
20884;SDS011;10602;48.000;9.654;2022-07-29T00:25:56;5.40;;;4.20;;
20884;SDS011;10602;48.000;9.654;2022-07-29T00:28:24;4.33;;;3.70;;
20884;SDS011;10602;48.000;9.654;2022-07-29T00:30:51;5.70;;;4.00;;
20884;SDS011;10602;48.000;9.654;2022-07-29T00:33:19;4.30;;;3.90;;
20884;SDS011;10602;48.000;9.654;2022-07-29T00:35:47;4.43;;;4.00;;
20884;SDS011;10602;48.000;9.654;2022-07-29T00:38:16;5.47;;;3.70;;
20884;SDS011;10602;48.000;9.654;2022-07-29T00:40:46;5.43;;;4.13;;
20884;SDS011;10602;48.000;9.654;2022-07-29T00:43:14;4.83;;;4.30;;
20884;SDS011;10602;48.000;9.654;2022-07-29T00:45:43;4.40;;;4.00;;
20884;SDS011;10602;48.000;9.654;2022-07-29T00:48:11;4.20;;;3.80;;
20884;SDS011;10602;48.000;9.654;2022-07-29T00:50:38;4.60;;;4.20;;
20884;SDS011;10602;48.000;9.654;2022-07-29T00:53:06;4.20;;;3.80;;
20884;SDS011;10602;48.000;9.654;2022-07-29T00:55:34;4.10;;;3.70;;
20884;SDS011;10602;48.000;9.654;2022-07-29T00:58:02;4.07;;;3.60;;
20884;SDS011;10602;48.000;9.654;2022-07-29T01:00:30;4.50;;;4.10;;
20884;SDS011;10602;48.000;9.654;2022-07-29T01:02:58;4.83;;;3.70;;
20884;SDS011;10602;48.000;9.654;2022-07-29T01:05:26;4.63;;;4.20;;
20884;SDS011;10602;48.000;9.654;2022-07-29T01:07:56;4.43;;;4.03;;
20884;SDS011;10602;48.000;9.654;2022-07-29T01:10:24;5.43;;;4.00;;
20884;SDS011;10602;48.000;9.654;2022-07-29T01:12:52;5.63;;;3.90;;
20884;SDS011;10602;48.000;9.654;2022-07-29T01:15:22;4.17;;;3.70;;
20884;SDS011;10602;48.000;9.654;2022-07-29T01:23:25;5.20;;;4.50;;
20884;SDS011;10602;48.000;9.654;2022-07-29T01:34:11;3.53;;;3.13;;
20884;SDS011;10602;48.000;9.654;2022-07-29T01:36:45;3.60;;;3.30;;
20884;SDS011;10602;48.000;9.654;2022-07-29T01:39:23;4.03;;;3.50;;
20884;SDS011;10602;48.000;9.654;2022-07-29T01:42:06;5.10;;;3.00;;
20884;SDS011;10602;48.000;9.654;2022-07-29T01:44:38;3.13;;;2.83;;
20884;SDS011;10602;48.000;9.654;2022-07-29T01:47:13;3.67;;;3.20;;
20884;SDS011;10602;48.000;9.654;2022-07-29T01:49:39;4.30;;;3.03;;
20884;SDS011;10602;48.000;9.654;2022-07-29T01:52:09;4.63;;;2.87;;
20884;SDS011;10602;48.000;9.654;2022-07-29T01:54:47;3.37;;;3.07;;
20884;SDS011;10602;48.000;9.654;2022-07-29T01:57:13;3.40;;;3.10;;
20884;SDS011;10602;48.000;9.654;2022-07-29T01:59:46;4.27;;;2.93;;
20884;SDS011;10602;48.000;9.654;2022-07-29T02:02:15;3.70;;;3.30;;
20884;SDS011;10602;48.000;9.654;2022-07-29T02:04:44;4.47;;;2.90;;
20884;SDS011;10602;48.000;9.654;2022-07-29T02:07:15;2.90;;;2.60;;
20884;SDS011;10602;48.000;9.654;2022-07-29T02:09:44;4.90;;;3.00;;
20884;SDS011;10602;48.000;9.654;2022-07-29T02:12:14;3.30;;;2.80;;
20884;SDS011;10602;48.000;9.654;2022-07-29T02:14:45;5.77;;;3.30;;
20884;SDS011;10602;48.000;9.654;2022-07-29T02:17:15;5.23;;;2.93;;
20884;SDS011;10602;48.000;9.654;2022-07-29T02:19:44;6.20;;;2.60;;
20884;SDS011;10602;48.000;9.654;2022-07-29T02:22:13;5.00;;;2.70;;
20884;SDS011;10602;48.000;9.654;2022-07-29T02:24:43;4.87;;;2.90;;
20884;SDS011;10602;48.000;9.654;2022-07-29T02:27:12;5.93;;;2.70;;
20884;SDS011;10602;48.000;9.654;2022-07-29T02:29:41;6.53;;;2.80;;
20884;SDS011;10602;48.000;9.654;2022-07-29T02:32:12;5.50;;;2.87;;
20884;SDS011;10602;48.000;9.654;2022-07-29T02:34:42;3.80;;;2.97;;
20884;SDS011;10602;48.000;9.654;2022-07-29T02:37:11;4.33;;;2.70;;
20884;SDS011;10602;48.000;9.654;2022-07-29T02:39:40;4.00;;;3.07;;
20884;SDS011;10602;48.000;9.654;2022-07-29T02:42:11;3.57;;;2.13;;
20884;SDS011;10602;48.000;9.654;2022-07-29T02:44:40;2.60;;;2.40;;
20884;SDS011;10602;48.000;9.654;2022-07-29T02:47:13;3.57;;;2.70;;
20884;SDS011;10602;48.000;9.654;2022-07-29T02:49:55;4.77;;;2.63;;
20884;SDS011;10602;48.000;9.654;2022-07-29T02:52:52;2.70;;;2.40;;
20884;SDS011;10602;48.000;9.654;2022-07-29T02:55:19;3.20;;;2.40;;
20884;SDS011;10602;48.000;9.654;2022-07-29T02:58:02;4.10;;;2.50;;
20884;SDS011;10602;48.000;9.654;2022-07-29T03:00:33;4.63;;;2.50;;
20884;SDS011;10602;48.000;9.654;2022-07-29T03:03:03;4.57;;;2.30;;
20884;SDS011;10602;48.000;9.654;2022-07-29T03:05:32;2.80;;;2.37;;
20884;SDS011;10602;48.000;9.654;2022-07-29T03:08:01;3.33;;;2.50;;
20884;SDS011;10602;48.000;9.654;2022-07-29T03:10:31;4.40;;;2.70;;
20884;SDS011;10602;48.000;9.654;2022-07-29T03:12:59;4.47;;;2.50;;
20884;SDS011;10602;48.000;9.654;2022-07-29T03:15:27;2.97;;;2.53;;
20884;SDS011;10602;48.000;9.654;2022-07-29T03:17:55;3.23;;;2.03;;
20884;SDS011;10602;48.000;9.654;2022-07-29T03:20:24;3.70;;;2.20;;
20884;SDS011;10602;48.000;9.654;2022-07-29T03:22:52;2.30;;;2.10;;
20884;SDS011;10602;48.000;9.654;2022-07-29T03:25:20;2.23;;;2.03;;
20884;SDS011;10602;48.000;9.654;2022-07-29T03:27:48;3.37;;;2.20;;
20884;SDS011;10602;48.000;9.654;2022-07-29T03:30:15;2.67;;;2.27;;
20884;SDS011;10602;48.000;9.654;2022-07-29T03:32:43;2.93;;;2.20;;
20884;SDS011;10602;48.000;9.654;2022-07-29T03:35:11;2.70;;;2.27;;
20884;SDS011;10602;48.000;9.654;2022-07-29T03:37:39;2.30;;;2.10;;
20884;SDS011;10602;48.000;9.654;2022-07-29T03:40:07;2.23;;;2.00;;
20884;SDS011;10602;48.000;9.654;2022-07-29T03:42:37;3.60;;;2.17;;
20884;SDS011;10602;48.000;9.654;2022-07-29T03:45:07;3.70;;;2.10;;
20884;SDS011;10602;48.000;9.654;2022-07-29T03:47:38;2.37;;;1.90;;
20884;SDS011;10602;48.000;9.654;2022-07-29T03:50:08;2.00;;;1.77;;
20884;SDS011;10602;48.000;9.654;2022-07-29T03:52:38;2.60;;;2.20;;
20884;SDS011;10602;48.000;9.654;2022-07-29T03:55:07;4.20;;;1.93;;
20884;SDS011;10602;48.000;9.654;2022-07-29T03:57:36;2.20;;;2.00;;
20884;SDS011;10602;48.000;9.654;2022-07-29T04:00:06;2.93;;;2.00;;
20884;SDS011;10602;48.000;9.654;2022-07-29T04:02:34;3.67;;;2.20;;
20884;SDS011;10602;48.000;9.654;2022-07-29T04:05:02;5.70;;;1.80;;
20884;SDS011;10602;48.000;9.654;2022-07-29T04:07:30;4.17;;;2.00;;
20884;SDS011;10602;48.000;9.654;2022-07-29T04:09:58;2.73;;;1.93;;
20884;SDS011;10602;48.000;9.654;2022-07-29T04:12:25;3.77;;;2.07;;
20884;SDS011;10602;48.000;9.654;2022-07-29T04:14:53;2.90;;;2.20;;
20884;SDS011;10602;48.000;9.654;2022-07-29T04:17:20;3.60;;;2.00;;
20884;SDS011;10602;48.000;9.654;2022-07-29T04:19:48;6.40;;;2.60;;
20884;SDS011;10602;48.000;9.654;2022-07-29T04:22:15;5.23;;;2.20;;
20884;SDS011;10602;48.000;9.654;2022-07-29T04:24:43;4.07;;;2.90;;
20884;SDS011;10602;48.000;9.654;2022-07-29T04:27:10;3.93;;;2.30;;
20884;SDS011;10602;48.000;9.654;2022-07-29T04:29:38;4.87;;;2.40;;
20884;SDS011;10602;48.000;9.654;2022-07-29T04:32:05;4.93;;;2.30;;
20884;SDS011;10602;48.000;9.654;2022-07-29T04:34:33;2.40;;;2.20;;
20884;SDS011;10602;48.000;9.654;2022-07-29T04:37:00;2.67;;;2.20;;
20884;SDS011;10602;48.000;9.654;2022-07-29T04:39:28;2.50;;;2.20;;
20884;SDS011;10602;48.000;9.654;2022-07-29T04:41:55;2.40;;;2.20;;
20884;SDS011;10602;48.000;9.654;2022-07-29T04:44:23;2.50;;;2.20;;
20884;SDS011;10602;48.000;9.654;2022-07-29T04:46:50;5.00;;;2.43;;
20884;SDS011;10602;48.000;9.654;2022-07-29T04:49:18;2.83;;;2.53;;
20884;SDS011;10602;48.000;9.654;2022-07-29T04:51:45;2.87;;;2.30;;
20884;SDS011;10602;48.000;9.654;2022-07-29T04:54:13;2.83;;;2.63;;
20884;SDS011;10602;48.000;9.654;2022-07-29T04:56:40;3.50;;;2.50;;
20884;SDS011;10602;48.000;9.654;2022-07-29T04:59:08;3.53;;;2.43;;
20884;SDS011;10602;48.000;9.654;2022-07-29T05:01:35;2.87;;;2.60;;
20884;SDS011;10602;48.000;9.654;2022-07-29T05:04:03;2.93;;;2.63;;
20884;SDS011;10602;48.000;9.654;2022-07-29T05:06:30;3.67;;;2.50;;
20884;SDS011;10602;48.000;9.654;2022-07-29T05:08:58;3.50;;;2.47;;
20884;SDS011;10602;48.000;9.654;2022-07-29T05:11:25;5.37;;;2.93;;
20884;SDS011;10602;48.000;9.654;2022-07-29T05:13:53;3.03;;;2.60;;
20884;SDS011;10602;48.000;9.654;2022-07-29T05:16:20;4.57;;;2.90;;
20884;SDS011;10602;48.000;9.654;2022-07-29T05:18:48;3.40;;;2.53;;
20884;SDS011;10602;48.000;9.654;2022-07-29T05:21:16;3.80;;;2.53;;
20884;SDS011;10602;48.000;9.654;2022-07-29T05:23:43;2.97;;;2.67;;
20884;SDS011;10602;48.000;9.654;2022-07-29T05:26:11;4.37;;;2.80;;
20884;SDS011;10602;48.000;9.654;2022-07-29T05:28:43;4.63;;;2.80;;
20884;SDS011;10602;48.000;9.654;2022-07-29T05:31:10;3.73;;;2.67;;
20884;SDS011;10602;48.000;9.654;2022-07-29T05:33:40;4.23;;;2.53;;
20884;SDS011;10602;48.000;9.654;2022-07-29T05:36:08;4.63;;;2.80;;
20884;SDS011;10602;48.000;9.654;2022-07-29T05:38:35;3.90;;;2.90;;
20884;SDS011;10602;48.000;9.654;2022-07-29T05:41:03;3.93;;;2.83;;
20884;SDS011;10602;48.000;9.654;2022-07-29T05:43:32;4.50;;;2.57;;
20884;SDS011;10602;48.000;9.654;2022-07-29T05:46:00;4.83;;;2.87;;
20884;SDS011;10602;48.000;9.654;2022-07-29T05:48:27;3.23;;;2.23;;
20884;SDS011;10602;48.000;9.654;2022-07-29T05:50:55;6.03;;;2.53;;
20884;SDS011;10602;48.000;9.654;2022-07-29T05:53:22;4.20;;;2.67;;
20884;SDS011;10602;48.000;9.654;2022-07-29T05:55:50;2.83;;;2.57;;
20884;SDS011;10602;48.000;9.654;2022-07-29T05:58:18;2.93;;;2.63;;
20884;SDS011;10602;48.000;9.654;2022-07-29T06:00:46;2.90;;;2.40;;
20884;SDS011;10602;48.000;9.654;2022-07-29T06:03:13;6.60;;;2.67;;
20884;SDS011;10602;48.000;9.654;2022-07-29T06:05:41;3.60;;;2.30;;
20884;SDS011;10602;48.000;9.654;2022-07-29T06:08:08;3.57;;;2.27;;
20884;SDS011;10602;48.000;9.654;2022-07-29T06:10:36;3.17;;;2.53;;
20884;SDS011;10602;48.000;9.654;2022-07-29T06:13:04;3.27;;;2.53;;
20884;SDS011;10602;48.000;9.654;2022-07-29T06:15:31;4.63;;;2.53;;
20884;SDS011;10602;48.000;9.654;2022-07-29T06:17:59;3.30;;;2.27;;
20884;SDS011;10602;48.000;9.654;2022-07-29T06:20:30;4.20;;;2.40;;
20884;SDS011;10602;48.000;9.654;2022-07-29T06:22:58;2.70;;;2.50;;
20884;SDS011;10602;48.000;9.654;2022-07-29T06:25:26;4.43;;;2.43;;
20884;SDS011;10602;48.000;9.654;2022-07-29T06:27:59;2.60;;;2.40;;
20884;SDS011;10602;48.000;9.654;2022-07-29T06:30:26;3.23;;;2.50;;
20884;SDS011;10602;48.000;9.654;2022-07-29T06:32:54;4.20;;;2.20;;
20884;SDS011;10602;48.000;9.654;2022-07-29T06:35:22;2.80;;;2.60;;
20884;SDS011;10602;48.000;9.654;2022-07-29T06:37:49;3.97;;;2.50;;
20884;SDS011;10602;48.000;9.654;2022-07-29T06:40:17;3.27;;;2.70;;
20884;SDS011;10602;48.000;9.654;2022-07-29T06:43:03;3.30;;;2.13;;
20884;SDS011;10602;48.000;9.654;2022-07-29T06:45:33;3.60;;;2.30;;
20884;SDS011;10602;48.000;9.654;2022-07-29T06:48:04;3.00;;;2.20;;
20884;SDS011;10602;48.000;9.654;2022-07-29T06:50:32;5.33;;;2.27;;
20884;SDS011;10602;48.000;9.654;2022-07-29T06:52:59;2.20;;;2.00;;
20884;SDS011;10602;48.000;9.654;2022-07-29T06:55:27;2.43;;;1.93;;
20884;SDS011;10602;48.000;9.654;2022-07-29T06:57:54;2.40;;;2.20;;
20884;SDS011;10602;48.000;9.654;2022-07-29T07:00:22;3.87;;;2.30;;
20884;SDS011;10602;48.000;9.654;2022-07-29T07:02:49;2.40;;;2.13;;
20884;SDS011;10602;48.000;9.654;2022-07-29T07:05:17;2.97;;;2.43;;
20884;SDS011;10602;48.000;9.654;2022-07-29T07:07:44;2.70;;;2.50;;
20884;SDS011;10602;48.000;9.654;2022-07-29T07:10:12;3.70;;;2.60;;
20884;SDS011;10602;48.000;9.654;2022-07-29T07:12:40;2.70;;;2.30;;
20884;SDS011;10602;48.000;9.654;2022-07-29T07:15:08;3.70;;;2.60;;
20884;SDS011;10602;48.000;9.654;2022-07-29T07:17:36;2.80;;;2.37;;
20884;SDS011;10602;48.000;9.654;2022-07-29T07:20:04;2.70;;;2.50;;
20884;SDS011;10602;48.000;9.654;2022-07-29T07:22:32;3.87;;;2.50;;
20884;SDS011;10602;48.000;9.654;2022-07-29T07:25:00;2.80;;;2.50;;
20884;SDS011;10602;48.000;9.654;2022-07-29T07:27:27;2.50;;;2.30;;
20884;SDS011;10602;48.000;9.654;2022-07-29T07:29:55;3.47;;;2.33;;
20884;SDS011;10602;48.000;9.654;2022-07-29T07:32:23;3.17;;;2.10;;
20884;SDS011;10602;48.000;9.654;2022-07-29T07:34:50;4.00;;;2.60;;
20884;SDS011;10602;48.000;9.654;2022-07-29T07:37:18;2.77;;;2.50;;
20884;SDS011;10602;48.000;9.654;2022-07-29T07:39:46;2.73;;;2.30;;
20884;SDS011;10602;48.000;9.654;2022-07-29T07:42:13;2.63;;;2.37;;
20884;SDS011;10602;48.000;9.654;2022-07-29T07:44:41;3.23;;;2.67;;
20884;SDS011;10602;48.000;9.654;2022-07-29T07:47:08;4.70;;;2.70;;
20884;SDS011;10602;48.000;9.654;2022-07-29T07:49:36;2.90;;;2.17;;
20884;SDS011;10602;48.000;9.654;2022-07-29T07:52:03;4.70;;;2.20;;
20884;SDS011;10602;48.000;9.654;2022-07-29T07:54:31;3.47;;;2.67;;
20884;SDS011;10602;48.000;9.654;2022-07-29T07:56:58;3.20;;;2.57;;
20884;SDS011;10602;48.000;9.654;2022-07-29T07:59:26;3.30;;;2.37;;
20884;SDS011;10602;48.000;9.654;2022-07-29T08:01:54;3.93;;;2.57;;
20884;SDS011;10602;48.000;9.654;2022-07-29T08:04:22;3.67;;;2.60;;
20884;SDS011;10602;48.000;9.654;2022-07-29T08:06:50;4.93;;;3.67;;
20884;SDS011;10602;48.000;9.654;2022-07-29T08:09:20;5.30;;;2.73;;
20884;SDS011;10602;48.000;9.654;2022-07-29T08:11:48;3.13;;;2.40;;
20884;SDS011;10602;48.000;9.654;2022-07-29T08:14:16;4.80;;;3.17;;
20884;SDS011;10602;48.000;9.654;2022-07-29T08:16:43;2.70;;;2.40;;
20884;SDS011;10602;48.000;9.654;2022-07-29T08:19:11;4.03;;;2.83;;
20884;SDS011;10602;48.000;9.654;2022-07-29T08:21:39;7.77;;;4.97;;
20884;SDS011;10602;48.000;9.654;2022-07-29T08:24:07;5.67;;;3.53;;
20884;SDS011;10602;48.000;9.654;2022-07-29T08:26:53;2.50;;;2.30;;
20884;SDS011;10602;48.000;9.654;2022-07-29T08:29:20;5.10;;;2.47;;
20884;SDS011;10602;48.000;9.654;2022-07-29T08:31:48;4.10;;;2.60;;
20884;SDS011;10602;48.000;9.654;2022-07-29T08:34:15;3.83;;;2.63;;
20884;SDS011;10602;48.000;9.654;2022-07-29T08:36:43;3.87;;;2.70;;
20884;SDS011;10602;48.000;9.654;2022-07-29T08:39:10;3.60;;;2.60;;
20884;SDS011;10602;48.000;9.654;2022-07-29T08:41:38;3.23;;;2.27;;
20884;SDS011;10602;48.000;9.654;2022-07-29T08:44:05;2.53;;;2.33;;
20884;SDS011;10602;48.000;9.654;2022-07-29T08:46:33;4.47;;;2.70;;
20884;SDS011;10602;48.000;9.654;2022-07-29T08:49:05;3.77;;;2.67;;
20884;SDS011;10602;48.000;9.654;2022-07-29T08:51:34;2.80;;;2.50;;
20884;SDS011;10602;48.000;9.654;2022-07-29T08:54:04;3.90;;;3.10;;
20884;SDS011;10602;48.000;9.654;2022-07-29T08:56:32;3.27;;;2.67;;
20884;SDS011;10602;48.000;9.654;2022-07-29T08:59:02;5.00;;;2.93;;
20884;SDS011;10602;48.000;9.654;2022-07-29T09:01:32;2.97;;;2.43;;
20884;SDS011;10602;48.000;9.654;2022-07-29T09:04:01;2.90;;;2.70;;
20884;SDS011;10602;48.000;9.654;2022-07-29T09:06:31;3.10;;;2.70;;
20884;SDS011;10602;48.000;9.654;2022-07-29T09:09:00;3.50;;;2.80;;
20884;SDS011;10602;48.000;9.654;2022-07-29T09:11:31;3.47;;;3.10;;
20884;SDS011;10602;48.000;9.654;2022-07-29T09:13:59;2.77;;;2.57;;
20884;SDS011;10602;48.000;9.654;2022-07-29T09:16:42;2.53;;;2.33;;
20884;SDS011;10602;48.000;9.654;2022-07-29T09:19:34;3.47;;;2.57;;
20884;SDS011;10602;48.000;9.654;2022-07-29T09:21:48;2.83;;;2.53;;
20884;SDS011;10602;48.000;9.654;2022-07-29T09:24:25;3.77;;;2.27;;
20884;SDS011;10602;48.000;9.654;2022-07-29T09:26:54;3.10;;;2.80;;
20884;SDS011;10602;48.000;9.654;2022-07-29T09:29:23;2.70;;;2.50;;
20884;SDS011;10602;48.000;9.654;2022-07-29T09:31:52;3.23;;;2.37;;
20884;SDS011;10602;48.000;9.654;2022-07-29T09:34:22;3.10;;;2.80;;
20884;SDS011;10602;48.000;9.654;2022-07-29T09:36:56;2.70;;;2.50;;
20884;SDS011;10602;48.000;9.654;2022-07-29T09:39:31;2.90;;;2.70;;
20884;SDS011;10602;48.000;9.654;2022-07-29T09:42:05;4.37;;;2.80;;
20884;SDS011;10602;48.000;9.654;2022-07-29T09:44:43;3.47;;;3.10;;
20884;SDS011;10602;48.000;9.654;2022-07-29T09:47:16;2.93;;;2.60;;
20884;SDS011;10602;48.000;9.654;2022-07-29T09:49:57;2.97;;;2.50;;
20884;SDS011;10602;48.000;9.654;2022-07-29T09:52:30;3.00;;;2.70;;
20884;SDS011;10602;48.000;9.654;2022-07-29T09:55:05;4.27;;;2.90;;
20884;SDS011;10602;48.000;9.654;2022-07-29T09:57:33;3.57;;;2.67;;
20884;SDS011;10602;48.000;9.654;2022-07-29T10:00:03;2.70;;;2.50;;
20884;SDS011;10602;48.000;9.654;2022-07-29T10:02:33;2.60;;;2.40;;
20884;SDS011;10602;48.000;9.654;2022-07-29T10:05:03;3.37;;;2.30;;
20884;SDS011;10602;48.000;9.654;2022-07-29T10:07:43;2.67;;;2.47;;
20884;SDS011;10602;48.000;9.654;2022-07-29T10:10:35;3.07;;;2.77;;
20884;SDS011;10602;48.000;9.654;2022-07-29T10:12:49;3.43;;;2.70;;
20884;SDS011;10602;48.000;9.654;2022-07-29T10:15:23;3.07;;;2.60;;
20884;SDS011;10602;48.000;9.654;2022-07-29T10:17:52;3.07;;;2.77;;
20884;SDS011;10602;48.000;9.654;2022-07-29T10:20:22;3.67;;;3.20;;
20884;SDS011;10602;48.000;9.654;2022-07-29T10:22:51;3.23;;;2.77;;
20884;SDS011;10602;48.000;9.654;2022-07-29T10:25:19;2.87;;;2.60;;
20884;SDS011;10602;48.000;9.654;2022-07-29T10:27:47;3.07;;;2.87;;
20884;SDS011;10602;48.000;9.654;2022-07-29T10:30:18;5.10;;;3.10;;
20884;SDS011;10602;48.000;9.654;2022-07-29T10:32:59;4.57;;;3.20;;
20884;SDS011;10602;48.000;9.654;2022-07-29T10:44:20;3.30;;;3.00;;
20884;SDS011;10602;48.000;9.654;2022-07-29T10:46:50;4.97;;;3.00;;
20884;SDS011;10602;48.000;9.654;2022-07-29T10:49:19;3.27;;;2.80;;
20884;SDS011;10602;48.000;9.654;2022-07-29T10:51:58;3.23;;;2.93;;
20884;SDS011;10602;48.000;9.654;2022-07-29T11:02:41;3.53;;;3.23;;
20884;SDS011;10602;48.000;9.654;2022-07-29T11:05:13;3.67;;;3.37;;
20884;SDS011;10602;48.000;9.654;2022-07-29T11:10:38;3.73;;;3.40;;
20884;SDS011;10602;48.000;9.654;2022-07-29T11:13:06;3.63;;;3.30;;
20884;SDS011;10602;48.000;9.654;2022-07-29T11:18:20;3.50;;;3.20;;
20884;SDS011;10602;48.000;9.654;2022-07-29T11:20:48;5.37;;;3.40;;
20884;SDS011;10602;48.000;9.654;2022-07-29T11:28:55;4.83;;;3.80;;
20884;SDS011;10602;48.000;9.654;2022-07-29T11:31:45;3.97;;;3.30;;
20884;SDS011;10602;48.000;9.654;2022-07-29T11:37:20;6.47;;;3.63;;
20884;SDS011;10602;48.000;9.654;2022-07-29T11:40:27;4.13;;;3.50;;
20884;SDS011;10602;48.000;9.654;2022-07-29T11:44:59;5.70;;;3.67;;
20884;SDS011;10602;48.000;9.654;2022-07-29T11:47:33;4.53;;;3.77;;
20884;SDS011;10602;48.000;9.654;2022-07-29T11:50:07;3.87;;;3.53;;
20884;SDS011;10602;48.000;9.654;2022-07-29T11:52:40;4.27;;;3.87;;
20884;SDS011;10602;48.000;9.654;2022-07-29T11:55:15;3.60;;;3.30;;
20884;SDS011;10602;48.000;9.654;2022-07-29T11:57:49;3.77;;;3.37;;
20884;SDS011;10602;48.000;9.654;2022-07-29T12:00:29;4.10;;;3.70;;
20884;SDS011;10602;48.000;9.654;2022-07-29T12:02:58;5.20;;;3.60;;
20884;SDS011;10602;48.000;9.654;2022-07-29T12:05:35;6.10;;;4.20;;
20884;SDS011;10602;48.000;9.654;2022-07-29T12:08:20;5.10;;;3.60;;
20884;SDS011;10602;48.000;9.654;2022-07-29T12:10:50;5.30;;;3.47;;
20884;SDS011;10602;48.000;9.654;2022-07-29T12:13:19;3.80;;;3.50;;
20884;SDS011;10602;48.000;9.654;2022-07-29T12:15:53;4.73;;;3.53;;
20884;SDS011;10602;48.000;9.654;2022-07-29T12:18:23;4.27;;;3.80;;
20884;SDS011;10602;48.000;9.654;2022-07-29T12:21:02;3.80;;;3.37;;
20884;SDS011;10602;48.000;9.654;2022-07-29T12:23:28;4.00;;;3.50;;
20884;SDS011;10602;48.000;9.654;2022-07-29T12:25:58;3.70;;;3.40;;
20884;SDS011;10602;48.000;9.654;2022-07-29T12:28:26;3.90;;;3.50;;
20884;SDS011;10602;48.000;9.654;2022-07-29T12:30:53;3.90;;;3.60;;
20884;SDS011;10602;48.000;9.654;2022-07-29T12:33:22;4.13;;;3.60;;
20884;SDS011;10602;48.000;9.654;2022-07-29T12:35:58;3.13;;;2.93;;
20884;SDS011;10602;48.000;9.654;2022-07-29T12:38:22;4.27;;;3.07;;
20884;SDS011;10602;48.000;9.654;2022-07-29T12:40:51;3.10;;;2.80;;
20884;SDS011;10602;48.000;9.654;2022-07-29T12:43:20;3.20;;;2.83;;
20884;SDS011;10602;48.000;9.654;2022-07-29T12:45:55;2.70;;;2.50;;
20884;SDS011;10602;48.000;9.654;2022-07-29T12:48:32;2.97;;;2.53;;
20884;SDS011;10602;48.000;9.654;2022-07-29T12:51:02;5.27;;;2.90;;
20884;SDS011;10602;48.000;9.654;2022-07-29T12:53:31;3.90;;;2.73;;
20884;SDS011;10602;48.000;9.654;2022-07-29T12:55:59;2.40;;;2.20;;
20884;SDS011;10602;48.000;9.654;2022-07-29T13:01:20;3.17;;;2.33;;
20884;SDS011;10602;48.000;9.654;2022-07-29T13:03:57;2.87;;;2.37;;
20884;SDS011;10602;48.000;9.654;2022-07-29T13:09:04;2.77;;;2.57;;
20884;SDS011;10602;48.000;9.654;2022-07-29T13:11:30;2.47;;;2.27;;
20884;SDS011;10602;48.000;9.654;2022-07-29T13:13:59;3.23;;;2.60;;
20884;SDS011;10602;48.000;9.654;2022-07-29T13:16:27;3.20;;;2.70;;
20884;SDS011;10602;48.000;9.654;2022-07-29T13:19:04;2.70;;;2.50;;
20884;SDS011;10602;48.000;9.654;2022-07-29T13:21:33;2.70;;;2.20;;
20884;SDS011;10602;48.000;9.654;2022-07-29T13:24:02;2.80;;;2.60;;
20884;SDS011;10602;48.000;9.654;2022-07-29T13:26:29;2.57;;;2.33;;
20884;SDS011;10602;48.000;9.654;2022-07-29T13:28:57;3.03;;;2.40;;
20884;SDS011;10602;48.000;9.654;2022-07-29T13:31:24;4.03;;;2.63;;
20884;SDS011;10602;48.000;9.654;2022-07-29T13:33:52;4.67;;;2.37;;
20884;SDS011;10602;48.000;9.654;2022-07-29T13:36:19;2.60;;;2.40;;
20884;SDS011;10602;48.000;9.654;2022-07-29T13:38:47;2.50;;;2.30;;
20884;SDS011;10602;48.000;9.654;2022-07-29T13:41:15;3.87;;;2.30;;
20884;SDS011;10602;48.000;9.654;2022-07-29T13:43:42;2.30;;;2.10;;
20884;SDS011;10602;48.000;9.654;2022-07-29T13:46:10;2.80;;;2.20;;
20884;SDS011;10602;48.000;9.654;2022-07-29T13:48:38;3.03;;;2.40;;
20884;SDS011;10602;48.000;9.654;2022-07-29T13:51:05;2.53;;;2.33;;
20884;SDS011;10602;48.000;9.654;2022-07-29T13:53:33;3.17;;;2.30;;
20884;SDS011;10602;48.000;9.654;2022-07-29T13:56:00;5.50;;;2.27;;
20884;SDS011;10602;48.000;9.654;2022-07-29T13:58:28;3.23;;;2.87;;
20884;SDS011;10602;48.000;9.654;2022-07-29T14:00:55;3.40;;;3.00;;
20884;SDS011;10602;48.000;9.654;2022-07-29T14:03:23;3.90;;;3.20;;
20884;SDS011;10602;48.000;9.654;2022-07-29T14:05:50;3.10;;;2.80;;
20884;SDS011;10602;48.000;9.654;2022-07-29T14:08:18;3.83;;;2.77;;
20884;SDS011;10602;48.000;9.654;2022-07-29T14:10:45;3.37;;;2.90;;
20884;SDS011;10602;48.000;9.654;2022-07-29T14:13:13;3.07;;;2.70;;
20884;SDS011;10602;48.000;9.654;2022-07-29T14:15:40;3.07;;;2.80;;
20884;SDS011;10602;48.000;9.654;2022-07-29T14:18:08;3.03;;;2.50;;
20884;SDS011;10602;48.000;9.654;2022-07-29T14:20:35;2.87;;;2.20;;
20884;SDS011;10602;48.000;9.654;2022-07-29T14:23:03;2.60;;;2.40;;
20884;SDS011;10602;48.000;9.654;2022-07-29T14:25:30;2.97;;;2.63;;
20884;SDS011;10602;48.000;9.654;2022-07-29T14:27:58;3.40;;;2.17;;
20884;SDS011;10602;48.000;9.654;2022-07-29T14:30:25;2.57;;;2.37;;
20884;SDS011;10602;48.000;9.654;2022-07-29T14:32:53;3.87;;;2.20;;
20884;SDS011;10602;48.000;9.654;2022-07-29T14:35:20;3.10;;;2.30;;
20884;SDS011;10602;48.000;9.654;2022-07-29T14:37:48;2.57;;;2.37;;
20884;SDS011;10602;48.000;9.654;2022-07-29T14:40:15;2.40;;;2.20;;
20884;SDS011;10602;48.000;9.654;2022-07-29T14:42:43;3.30;;;2.23;;
20884;SDS011;10602;48.000;9.654;2022-07-29T14:45:10;2.43;;;2.00;;
20884;SDS011;10602;48.000;9.654;2022-07-29T14:47:38;3.17;;;2.10;;
20884;SDS011;10602;48.000;9.654;2022-07-29T14:50:06;1.97;;;1.80;;
20884;SDS011;10602;48.000;9.654;2022-07-29T14:52:34;2.27;;;2.03;;
20884;SDS011;10602;48.000;9.654;2022-07-29T14:55:02;5.53;;;2.00;;
20884;SDS011;10602;48.000;9.654;2022-07-29T14:57:30;2.47;;;1.80;;
20884;SDS011;10602;48.000;9.654;2022-07-29T14:59:58;3.37;;;2.10;;
20884;SDS011;10602;48.000;9.654;2022-07-29T15:02:25;2.93;;;2.33;;
20884;SDS011;10602;48.000;9.654;2022-07-29T15:04:53;2.40;;;2.10;;
20884;SDS011;10602;48.000;9.654;2022-07-29T15:07:20;2.87;;;2.57;;
20884;SDS011;10602;48.000;9.654;2022-07-29T15:09:48;4.47;;;2.63;;
20884;SDS011;10602;48.000;9.654;2022-07-29T15:12:15;3.27;;;2.60;;
20884;SDS011;10602;48.000;9.654;2022-07-29T15:14:43;2.63;;;2.43;;
20884;SDS011;10602;48.000;9.654;2022-07-29T15:17:11;3.17;;;2.37;;
20884;SDS011;10602;48.000;9.654;2022-07-29T15:19:38;2.90;;;2.53;;
20884;SDS011;10602;48.000;9.654;2022-07-29T15:22:06;4.23;;;2.50;;
20884;SDS011;10602;48.000;9.654;2022-07-29T15:24:33;2.67;;;2.47;;
20884;SDS011;10602;48.000;9.654;2022-07-29T15:27:01;3.23;;;2.50;;
20884;SDS011;10602;48.000;9.654;2022-07-29T15:29:28;3.37;;;2.60;;
20884;SDS011;10602;48.000;9.654;2022-07-29T15:31:56;3.77;;;2.90;;
20884;SDS011;10602;48.000;9.654;2022-07-29T15:34:23;2.70;;;2.50;;
20884;SDS011;10602;48.000;9.654;2022-07-29T15:36:51;4.00;;;2.97;;
20884;SDS011;10602;48.000;9.654;2022-07-29T15:39:19;3.47;;;2.70;;
20884;SDS011;10602;48.000;9.654;2022-07-29T15:41:48;5.00;;;2.80;;
20884;SDS011;10602;48.000;9.654;2022-07-29T15:44:17;4.40;;;2.90;;
20884;SDS011;10602;48.000;9.654;2022-07-29T15:46:45;2.97;;;2.37;;
20884;SDS011;10602;48.000;9.654;2022-07-29T15:49:29;3.13;;;2.70;;
20884;SDS011;10602;48.000;9.654;2022-07-29T15:51:58;4.07;;;2.60;;
20884;SDS011;10602;48.000;9.654;2022-07-29T15:54:27;3.40;;;3.10;;